F/V Izaskun Berria — ECBA — position and weather

sailwx.info

Track history (hours):
 
Tides and Currents Weather Stations Pressure Air Temp Water Temp Dewpoint Dewpoint Depression Visibility Wind Speed Wind Dir Waves Ship Positions

F/V Izaskun Berria

Last reported at 2014-Oct-31 08:32 UTC. Time now 2014-Nov-01 09:48 UTC.
Position N 43°58' W 001°45'.

Length 36 m.

Type: Fishing. MMSI: 224086790.

Date/timePositionNaut miles runAvg speedWind from/ knotsBaromVisibWave heightAir tempDewpointWater temp
2014-Oct-31 08:32N 43°58' W 001°45'1010.1
2014-Oct-31 07:33N 44°06' W 001°39'2 1.7
2014-Oct-31 06:18N 44°08' W 001°37'0 0.4
2014-Oct-31 05:33N 44°08' W 001°38'6 5.9
2014-Oct-31 04:33N 44°13' W 001°34'5 5.3
2014-Oct-31 03:34N 44°18' W 001°33'1 1.2
2014-Oct-31 02:33N 44°18' W 001°32'1 0.6
2014-Oct-31 01:33N 44°17' W 001°31'5 5.1
2014-Oct-31 00:33N 44°22' W 001°34'7 6.8
2014-Oct-30 23:34N 44°29' W 001°33'5 4.7
2014-Oct-30 22:33N 44°24' W 001°30'1410.9
2014-Oct-30 21:17N 44°11' W 001°31'7 9.2
2014-Oct-30 20:32N 44°04' W 001°33'1110.8
2014-Oct-30 19:29N 43°53' W 001°37'14 1.2
2014-Oct-30 07:33N 44°04' W 001°48'1110.8
2014-Oct-30 06:33N 44°14' W 001°43'1110.4
2014-Oct-30 05:32N 44°24' W 001°38'10 9.9
2014-Oct-30 04:31N 44°34' W 001°33'4 4.1
2014-Oct-30 03:32N 44°38' W 001°31'1 1.0
2014-Oct-30 02:29N 44°37' W 001°30'0 0.5
2014-Oct-30 01:33N 44°36' W 001°31'2 1.6
2014-Oct-30 00:26N 44°34' W 001°31'0 0.5
2014-Oct-29 23:31N 44°34' W 001°31'1 1.2
2014-Oct-29 22:32N 44°33' W 001°30'0 0.4
2014-Oct-29 21:33N 44°33' W 001°30'18 1.6
2014-Oct-29 10:05N 44°15' W 001°35'0 0.6
2014-Oct-29 09:21N 44°15' W 001°35'1 0.8
2014-Oct-29 08:24N 44°14' W 001°34'2 2.0
2014-Oct-29 07:33N 44°13' W 001°35'6 6.2
2014-Oct-29 06:33N 44°18' W 001°31'2 2.0
2014-Oct-29 05:29N 44°16' W 001°33'1 0.6
2014-Oct-29 04:33N 44°16' W 001°33'10 8.0
2014-Oct-29 03:16N 44°06' W 001°32'8 2.2
2014-Oct-28 23:33N 44°01' W 001°41'  
2014-Oct-24 10:03N 43°18' W 002°12'0 0.0
2014-Oct-24 09:31N 43°18' W 002°12'16 7.9
2014-Oct-24 07:26N 43°31' W 001°58'  
Track history (hours):
 
Tides and Currents Weather Stations Pressure Air Temp Water Temp Dewpoint Dewpoint Depression Visibility Wind Speed Wind Dir Waves Ship Positions

F/V Izaskun Berria

Last reported at 2014-Oct-31 08:32 UTC. Time now 2014-Nov-01 09:48 UTC.
Position N 43°58' W 001°45'.

Length 36 m.

Type: Fishing. MMSI: 224086790.

Date/timePositionNaut miles runAvg speedWind from/ knotsBaromVisibWave heightAir tempDewpointWater temp
2014-Oct-31 08:32N 43°58' W 001°45'1010.1
2014-Oct-31 07:33N 44°06' W 001°39'2 1.7
2014-Oct-31 06:18N 44°08' W 001°37'0 0.4
2014-Oct-31 05:33N 44°08' W 001°38'6 5.9
2014-Oct-31 04:33N 44°13' W 001°34'5 5.3
2014-Oct-31 03:34N 44°18' W 001°33'1 1.2
2014-Oct-31 02:33N 44°18' W 001°32'1 0.6
2014-Oct-31 01:33N 44°17' W 001°31'5 5.1
2014-Oct-31 00:33N 44°22' W 001°34'7 6.8
2014-Oct-30 23:34N 44°29' W 001°33'5 4.7
2014-Oct-30 22:33N 44°24' W 001°30'1410.9
2014-Oct-30 21:17N 44°11' W 001°31'7 9.2
2014-Oct-30 20:32N 44°04' W 001°33'1110.8
2014-Oct-30 19:29N 43°53' W 001°37'14 1.2
2014-Oct-30 07:33N 44°04' W 001°48'1110.8
2014-Oct-30 06:33N 44°14' W 001°43'1110.4
2014-Oct-30 05:32N 44°24' W 001°38'10 9.9
2014-Oct-30 04:31N 44°34' W 001°33'4 4.1
2014-Oct-30 03:32N 44°38' W 001°31'1 1.0
2014-Oct-30 02:29N 44°37' W 001°30'0 0.5
2014-Oct-30 01:33N 44°36' W 001°31'2 1.6
2014-Oct-30 00:26N 44°34' W 001°31'0 0.5
2014-Oct-29 23:31N 44°34' W 001°31'1 1.2
2014-Oct-29 22:32N 44°33' W 001°30'0 0.4
2014-Oct-29 21:33N 44°33' W 001°30'18 1.6
2014-Oct-29 10:05N 44°15' W 001°35'0 0.6
2014-Oct-29 09:21N 44°15' W 001°35'1 0.8
2014-Oct-29 08:24N 44°14' W 001°34'2 2.0
2014-Oct-29 07:33N 44°13' W 001°35'6 6.2
2014-Oct-29 06:33N 44°18' W 001°31'2 2.0
2014-Oct-29 05:29N 44°16' W 001°33'1 0.6
2014-Oct-29 04:33N 44°16' W 001°33'10 8.0
2014-Oct-29 03:16N 44°06' W 001°32'8 2.2
2014-Oct-28 23:33N 44°01' W 001°41'  
2014-Oct-24 10:03N 43°18' W 002°12'0 0.0
2014-Oct-24 09:31N 43°18' W 002°12'16 7.9
2014-Oct-24 07:26N 43°31' W 001°58'  

Dump ship's entire track history